createdAt,value
2017-06-12T00:00:34.269Z,4.73
2017-06-12T00:03:03.285Z,5.37
2017-06-12T00:05:31.516Z,6.07
2017-06-12T00:08:00.560Z,5.73
2017-06-12T00:10:28.817Z,7.07
2017-06-12T00:12:57.066Z,5.40
2017-06-12T00:15:25.388Z,6.20
2017-06-12T00:17:53.661Z,6.10
2017-06-12T00:20:21.942Z,6.20
2017-06-12T00:22:50.179Z,8.00
2017-06-12T00:25:19.306Z,5.40
2017-06-12T00:27:47.639Z,7.03
2017-06-12T00:30:16.642Z,6.90
2017-06-12T00:32:45.685Z,7.10
2017-06-12T00:35:13.926Z,6.37
2017-06-12T00:37:42.160Z,6.70
2017-06-12T00:40:10.499Z,5.33
2017-06-12T00:42:38.741Z,6.20
2017-06-12T00:45:07.098Z,5.70
2017-06-12T00:47:35.375Z,6.40
2017-06-12T00:50:03.602Z,7.00
2017-06-12T00:52:31.876Z,6.53
2017-06-12T00:55:00.206Z,6.07
2017-06-12T00:57:29.213Z,6.90
2017-06-12T00:59:58.225Z,5.80
2017-06-12T01:02:26.514Z,7.17
2017-06-12T01:04:54.906Z,6.87
2017-06-12T01:07:23.137Z,6.10
2017-06-12T01:09:51.413Z,8.90
2017-06-12T01:12:19.644Z,7.07
2017-06-12T01:14:47.997Z,6.63
2017-06-12T01:17:16.369Z,9.13
2017-06-12T01:19:44.610Z,10.83
2017-06-12T01:22:25.488Z,10.37
2017-06-12T01:24:53.791Z,8.97
2017-06-12T01:27:22.065Z,6.60
2017-06-12T01:29:50.317Z,6.30
2017-06-12T01:32:18.568Z,7.90
2017-06-12T01:34:46.793Z,6.97
2017-06-12T01:37:15.074Z,7.60
2017-06-12T01:39:43.309Z,6.97
2017-06-12T01:42:12.335Z,7.87
2017-06-12T01:44:40.641Z,8.20
2017-06-12T01:47:08.993Z,6.97
2017-06-12T01:49:37.221Z,6.20
2017-06-12T01:52:06.237Z,6.03
2017-06-12T01:54:34.501Z,6.43
2017-06-12T01:57:02.815Z,6.07
2017-06-12T01:59:31.092Z,6.30
2017-06-12T02:01:59.323Z,5.93
2017-06-12T02:04:27.554Z,6.20
2017-06-12T02:06:55.909Z,5.87
2017-06-12T02:09:24.187Z,6.53
2017-06-12T02:11:52.425Z,5.90
2017-06-12T02:14:21.481Z,6.33
2017-06-12T02:16:49.722Z,5.93
2017-06-12T02:19:17.973Z,4.70
2017-06-12T02:21:47.103Z,6.50
2017-06-12T02:24:15.383Z,6.23
2017-06-12T02:26:43.636Z,6.87
2017-06-12T02:29:12.131Z,6.07
2017-06-12T02:31:40.413Z,6.63
2017-06-12T02:34:08.645Z,7.23
2017-06-12T02:36:37.689Z,9.23
2017-06-12T02:39:05.930Z,8.57
2017-06-12T02:41:34.245Z,8.37
2017-06-12T02:44:02.510Z,5.93
2017-06-12T02:46:30.747Z,5.57
2017-06-12T02:48:59.756Z,5.67
2017-06-12T02:51:28.054Z,5.20
2017-06-12T02:53:56.380Z,5.10
2017-06-12T02:56:25.562Z,5.47
2017-06-12T02:58:53.801Z,6.30
2017-06-12T03:01:22.120Z,6.80
2017-06-12T03:03:50.336Z,11.20
2017-06-12T03:06:18.591Z,9.33
2017-06-12T03:08:46.861Z,13.60
2017-06-12T03:11:15.099Z,10.17
2017-06-12T03:13:43.372Z,11.60
2017-06-12T03:16:11.721Z,10.10
2017-06-12T03:18:39.961Z,9.60
2017-06-12T03:21:08.277Z,10.23
2017-06-12T03:23:36.707Z,11.53
2017-06-12T03:26:05.077Z,11.40
2017-06-12T03:28:33.320Z,10.57
2017-06-12T03:31:01.577Z,12.20
2017-06-12T03:33:29.820Z,11.80
2017-06-12T03:35:58.175Z,12.83
2017-06-12T03:38:26.420Z,12.90
2017-06-12T03:40:54.670Z,15.30
2017-06-12T03:43:22.939Z,16.07
2017-06-12T03:45:51.190Z,14.13
2017-06-12T03:48:19.521Z,13.27
2017-06-12T03:50:47.885Z,13.63
2017-06-12T03:53:16.143Z,14.23
2017-06-12T03:55:44.405Z,13.00
2017-06-12T03:58:12.718Z,12.17
2017-06-12T04:00:41.056Z,13.23
2017-06-12T04:03:10.069Z,12.70
2017-06-12T04:05:38.357Z,13.30
2017-06-12T04:08:06.601Z,13.30
2017-06-12T04:10:35.616Z,12.73
2017-06-12T04:13:04.004Z,14.80
2017-06-12T04:15:32.251Z,12.60
2017-06-12T04:18:00.516Z,12.73
2017-06-12T04:20:29.552Z,10.47
2017-06-12T04:22:57.794Z,13.77
2017-06-12T04:25:26.058Z,13.23
2017-06-12T04:27:55.077Z,13.07
2017-06-12T04:30:23.337Z,11.43
2017-06-12T04:32:52.341Z,13.10
2017-06-12T04:35:20.662Z,15.00
2017-06-12T04:37:48.908Z,11.53
2017-06-12T04:40:17.157Z,13.30
2017-06-12T04:42:45.469Z,12.10
2017-06-12T04:45:13.713Z,10.50
2017-06-12T04:47:41.951Z,9.97
2017-06-12T04:50:10.221Z,11.20
2017-06-12T04:52:38.473Z,9.77
2017-06-12T04:55:06.698Z,10.03
2017-06-12T04:57:35.741Z,9.30
2017-06-12T05:00:04.022Z,8.57
2017-06-12T05:02:32.265Z,8.57
2017-06-12T05:05:00.602Z,11.03
2017-06-12T05:07:29.419Z,7.50
2017-06-12T05:09:58.423Z,9.40
2017-06-12T05:12:26.730Z,8.93
2017-06-12T05:14:54.957Z,8.70
2017-06-12T05:17:23.956Z,6.70
2017-06-12T05:19:52.280Z,7.70
2017-06-12T05:22:20.597Z,7.30
2017-06-12T05:24:48.925Z,9.70
2017-06-12T05:27:17.190Z,8.67
2017-06-12T05:29:45.533Z,8.00
2017-06-12T05:32:13.840Z,6.90
2017-06-12T05:34:42.153Z,6.17
2017-06-12T05:37:10.402Z,9.63
2017-06-12T05:39:38.678Z,8.80
2017-06-12T05:42:06.952Z,6.63
2017-06-12T05:44:35.192Z,9.60
2017-06-12T05:47:04.203Z,6.33
2017-06-12T05:49:32.483Z,8.80
2017-06-12T05:52:00.772Z,8.03
2017-06-12T05:54:29.007Z,7.57
2017-06-12T05:56:58.025Z,7.00
2017-06-12T05:59:26.467Z,9.40
2017-06-12T06:01:55.539Z,6.20
2017-06-12T06:04:23.784Z,9.10
2017-06-12T06:06:52.858Z,6.27
2017-06-12T06:09:21.099Z,4.93
2017-06-12T06:11:49.438Z,5.80
2017-06-12T06:14:17.721Z,4.13
2017-06-12T06:16:45.983Z,5.37
2017-06-12T06:19:14.241Z,4.00
2017-06-12T06:21:42.485Z,6.33
2017-06-12T06:24:11.499Z,4.10
2017-06-12T06:26:40.518Z,4.90
2017-06-12T06:29:08.756Z,3.70
2017-06-12T06:31:37.763Z,6.07
2017-06-12T06:34:06.045Z,4.20
2017-06-12T06:36:34.280Z,4.53
2017-06-12T06:39:02.517Z,5.57
2017-06-12T06:41:30.775Z,5.40
2017-06-12T06:43:59.114Z,5.67
2017-06-12T06:46:27.385Z,3.50
2017-06-12T06:48:55.608Z,3.50
2017-06-12T06:51:23.853Z,4.57
2017-06-12T06:53:52.884Z,3.53
2017-06-12T06:56:21.120Z,4.40
2017-06-12T06:58:50.148Z,3.17
2017-06-12T07:01:18.430Z,3.00
2017-06-12T07:03:46.801Z,4.83
2017-06-12T07:06:15.049Z,6.40
2017-06-12T07:08:44.140Z,3.07
2017-06-12T07:11:13.153Z,2.67
2017-06-12T07:13:41.476Z,4.37
2017-06-12T07:16:09.714Z,3.30
2017-06-12T07:18:38.015Z,5.07
2017-06-12T07:21:06.332Z,3.43
2017-06-12T07:23:35.342Z,4.87
2017-06-12T07:26:03.609Z,3.97
2017-06-12T07:28:32.631Z,2.57
2017-06-12T07:31:00.846Z,4.90
2017-06-12T07:33:29.097Z,2.20
2017-06-12T07:35:57.532Z,2.70
2017-06-12T07:38:25.790Z,2.43
2017-06-12T07:40:54.097Z,3.80
2017-06-12T07:43:22.333Z,4.90
2017-06-12T07:45:50.622Z,7.20
2017-06-12T07:48:18.942Z,3.10
2017-06-12T07:50:47.185Z,4.47
2017-06-12T07:53:16.190Z,4.77
2017-06-12T07:55:44.568Z,2.27
2017-06-12T07:58:13.547Z,3.83
2017-06-12T08:00:41.777Z,6.00
2017-06-12T08:03:10.045Z,2.20
2017-06-12T08:05:38.401Z,5.90
2017-06-12T08:08:06.682Z,1.73
2017-06-12T08:10:35.056Z,3.03
2017-06-12T08:13:03.479Z,2.90
2017-06-12T08:15:31.733Z,2.67
2017-06-12T08:18:00.217Z,2.30
2017-06-12T08:20:28.444Z,2.63
2017-06-12T08:22:56.688Z,4.73
2017-06-12T08:25:24.930Z,2.10
2017-06-12T08:27:53.173Z,2.57
2017-06-12T08:30:21.431Z,4.70
2017-06-12T08:32:50.460Z,3.40
2017-06-12T08:35:18.693Z,2.93
2017-06-12T08:37:47.717Z,4.53
2017-06-12T08:40:15.972Z,4.33
2017-06-12T08:42:44.603Z,3.80
2017-06-12T08:45:12.910Z,4.10
2017-06-12T08:47:41.234Z,3.13
2017-06-12T08:50:09.519Z,5.00
2017-06-12T08:52:37.765Z,3.93
2017-06-12T08:55:06.024Z,2.30
2017-06-12T08:57:35.029Z,4.40
2017-06-12T09:00:03.469Z,3.50
2017-06-12T09:02:31.819Z,1.57
2017-06-12T09:05:00.056Z,4.37
2017-06-12T09:07:28.385Z,2.80
2017-06-12T09:09:56.641Z,3.03
2017-06-12T09:12:24.916Z,2.10
2017-06-12T09:14:53.141Z,2.93
2017-06-12T09:17:22.185Z,3.67
2017-06-12T09:19:51.021Z,2.57
2017-06-12T09:22:20.019Z,2.83
2017-06-12T09:24:49.049Z,3.10
2017-06-12T09:27:17.285Z,2.53
2017-06-12T09:29:46.294Z,4.30
2017-06-12T09:32:14.565Z,2.30
2017-06-12T09:34:44.057Z,3.50
2017-06-12T09:37:13.198Z,7.43
2017-06-12T09:39:41.582Z,1.87
2017-06-12T09:42:09.818Z,2.83
2017-06-12T09:44:38.896Z,1.60
2017-06-12T09:47:07.929Z,2.70
2017-06-12T09:49:36.244Z,2.10
2017-06-12T09:52:04.592Z,2.13
2017-06-12T09:54:32.840Z,2.10
2017-06-12T09:57:01.092Z,1.70
2017-06-12T09:59:29.318Z,3.50
2017-06-12T10:01:57.589Z,1.17
2017-06-12T10:04:25.828Z,2.43
2017-06-12T10:06:54.873Z,2.53
2017-06-12T10:09:23.137Z,5.00
2017-06-12T10:11:51.377Z,2.50
2017-06-12T10:14:20.468Z,3.70
2017-06-12T10:16:49.658Z,1.97
2017-06-12T10:19:18.667Z,1.47
2017-06-12T10:21:47.680Z,2.97
2017-06-12T10:24:15.935Z,2.20
2017-06-12T10:26:44.185Z,1.57
2017-06-12T10:29:12.481Z,2.40
2017-06-12T10:31:40.760Z,2.53
2017-06-12T10:34:09.915Z,1.43
2017-06-12T10:36:38.211Z,4.20
2017-06-12T10:39:06.552Z,2.43
2017-06-12T10:41:34.888Z,2.20
2017-06-12T10:44:03.878Z,3.23
2017-06-12T10:46:32.154Z,2.33
2017-06-12T10:49:01.150Z,1.80
2017-06-12T10:51:29.553Z,1.80
2017-06-12T10:53:57.813Z,1.87
2017-06-12T10:56:26.054Z,2.37
2017-06-12T10:58:55.052Z,2.13
2017-06-12T11:01:23.396Z,3.30
2017-06-12T11:03:51.640Z,2.07
2017-06-12T11:06:19.887Z,1.23
2017-06-12T11:08:48.151Z,1.60
2017-06-12T11:11:17.162Z,2.20
2017-06-12T11:13:45.402Z,4.13
2017-06-12T11:16:13.675Z,3.67
2017-06-12T11:18:42.024Z,6.77
2017-06-12T11:21:10.299Z,3.67
2017-06-12T11:23:38.560Z,3.53
2017-06-12T11:26:06.832Z,3.53
2017-06-12T11:28:46.965Z,2.30
2017-06-12T11:31:15.296Z,1.40
2017-06-12T11:33:43.533Z,1.77
2017-06-12T11:36:11.841Z,2.63
2017-06-12T11:38:40.306Z,1.63
2017-06-12T11:41:08.546Z,1.03
2017-06-12T11:43:38.221Z,0.77
2017-06-12T11:46:08.693Z,1.13
2017-06-12T11:48:37.755Z,1.47
2017-06-12T11:51:07.671Z,1.30
2017-06-12T11:53:36.764Z,1.27
2017-06-12T11:56:05.613Z,2.10
2017-06-12T11:58:34.446Z,2.23
2017-06-12T12:01:02.693Z,3.23
2017-06-12T12:03:31.052Z,1.10
2017-06-12T12:05:59.297Z,3.10
2017-06-12T12:08:28.345Z,3.43
2017-06-12T12:10:57.208Z,3.00
2017-06-12T12:13:26.756Z,2.70
2017-06-12T12:15:55.545Z,1.50
2017-06-12T12:18:24.842Z,3.07
2017-06-12T12:20:53.285Z,1.10
2017-06-12T12:23:21.520Z,3.63
2017-06-12T12:25:49.830Z,1.97
2017-06-12T12:28:18.073Z,2.97
2017-06-12T12:30:46.305Z,2.17
2017-06-12T12:33:14.658Z,1.40
2017-06-12T12:35:42.953Z,3.43
2017-06-12T12:38:11.185Z,2.00
2017-06-12T12:40:39.488Z,2.23
2017-06-12T12:43:07.721Z,2.30
2017-06-12T12:45:36.897Z,2.23
2017-06-12T12:48:05.151Z,3.53
2017-06-12T12:50:33.403Z,2.17
2017-06-12T12:53:01.664Z,2.70
2017-06-12T12:55:29.958Z,2.43
2017-06-12T12:57:58.218Z,2.33
2017-06-12T13:00:26.456Z,1.97
2017-06-12T13:02:55.474Z,4.87
2017-06-12T13:05:23.711Z,0.90
2017-06-12T13:07:51.958Z,2.90
2017-06-12T13:10:20.229Z,1.33
2017-06-12T13:12:48.525Z,1.67
2017-06-12T13:15:16.846Z,3.43
2017-06-12T13:17:45.156Z,4.00
2017-06-12T13:20:13.409Z,1.87
2017-06-12T13:22:41.666Z,6.70
2017-06-12T13:25:10.686Z,7.67
2017-06-12T13:27:39.020Z,2.10
2017-06-12T13:30:07.243Z,4.20
2017-06-12T13:32:35.486Z,4.43
2017-06-12T13:35:03.749Z,3.20
2017-06-12T13:37:32.765Z,3.60
2017-06-12T13:40:01.017Z,5.67
2017-06-12T13:42:30.048Z,4.20
2017-06-12T13:44:58.373Z,2.63
2017-06-12T13:47:26.614Z,7.33
2017-06-12T13:49:54.862Z,1.03
2017-06-12T13:52:23.113Z,1.90
2017-06-12T13:54:52.705Z,3.37
2017-06-12T13:57:22.225Z,2.90
2017-06-12T13:59:51.281Z,2.33
2017-06-12T14:02:20.435Z,2.60
2017-06-12T14:04:49.491Z,1.70
2017-06-12T14:07:18.178Z,3.50
2017-06-12T14:09:46.431Z,1.80
2017-06-12T14:12:14.735Z,1.90
2017-06-12T14:14:43.761Z,3.23
2017-06-12T14:17:12.081Z,4.77
2017-06-12T14:19:40.347Z,1.30
2017-06-12T14:22:08.572Z,1.90
2017-06-12T14:24:36.890Z,1.70
2017-06-12T14:27:05.135Z,4.53
2017-06-12T14:29:34.139Z,2.93
2017-06-12T14:32:02.379Z,3.10
2017-06-12T14:34:31.397Z,1.37
2017-06-12T14:36:59.637Z,2.77
2017-06-12T14:39:27.965Z,5.47
2017-06-12T14:41:56.226Z,3.93
2017-06-12T14:44:24.514Z,3.00
2017-06-12T14:46:53.167Z,2.60
2017-06-12T14:49:21.548Z,2.53
2017-06-12T14:51:51.373Z,3.27
2017-06-12T14:54:20.887Z,1.57
2017-06-12T14:56:49.145Z,3.90
2017-06-12T14:59:17.408Z,3.00
2017-06-12T15:01:46.404Z,4.70
2017-06-12T15:04:15.484Z,3.00
2017-06-12T15:06:43.727Z,2.87
2017-06-12T15:09:11.971Z,3.60
2017-06-12T15:11:40.249Z,3.20
2017-06-12T15:14:08.507Z,3.13
2017-06-12T15:16:36.742Z,3.20
2017-06-12T15:19:05.047Z,3.83
2017-06-12T15:21:33.263Z,3.17
2017-06-12T15:24:01.516Z,4.67
2017-06-12T15:26:29.764Z,2.27
2017-06-12T15:28:58.785Z,4.90
2017-06-12T15:31:27.040Z,6.53
2017-06-12T15:33:55.357Z,5.67
2017-06-12T15:36:23.689Z,4.50
2017-06-12T15:38:51.954Z,4.27
2017-06-12T15:41:20.191Z,3.17
2017-06-12T15:43:48.453Z,6.13
2017-06-12T15:46:16.704Z,2.90
2017-06-12T15:48:45.077Z,4.20
2017-06-12T15:51:14.076Z,3.60
2017-06-12T15:53:42.317Z,5.90
2017-06-12T15:56:10.588Z,3.17
2017-06-12T15:58:39.076Z,4.10
2017-06-12T16:01:07.372Z,3.10
2017-06-12T16:03:36.372Z,5.13
2017-06-12T16:06:04.621Z,4.00
2017-06-12T16:08:33.254Z,7.43
2017-06-12T16:11:01.545Z,5.83
2017-06-12T16:13:29.899Z,2.97
2017-06-12T16:15:58.138Z,2.63
2017-06-12T16:18:26.371Z,5.60
2017-06-12T16:20:54.685Z,5.83
2017-06-12T16:23:23.033Z,6.07
2017-06-12T16:25:51.261Z,6.30
2017-06-12T16:28:19.503Z,7.47
2017-06-12T16:30:47.758Z,7.80
2017-06-12T16:33:16.124Z,12.70
2017-06-12T16:35:44.384Z,81.30
2017-06-12T16:38:12.625Z,122.43
2017-06-12T16:40:41.773Z,108.40
2017-06-12T16:43:10.217Z,204.00
2017-06-12T16:45:38.484Z,215.43
2017-06-12T16:48:06.805Z,826.77
2017-06-12T16:50:35.075Z,323.67
2017-06-12T16:53:03.340Z,375.90
2017-06-12T16:55:31.659Z,770.17
2017-06-12T16:57:59.930Z,1225.13
2017-06-12T17:00:28.277Z,1019.60
2017-06-12T17:02:56.542Z,525.13
2017-06-12T17:05:24.808Z,506.40
2017-06-12T17:07:53.308Z,590.63
2017-06-12T17:10:21.597Z,452.50
2017-06-12T17:12:49.958Z,382.33
2017-06-12T17:15:18.249Z,172.60
2017-06-12T17:17:46.623Z,22.60
2017-06-12T17:20:14.880Z,17.70
2017-06-12T17:22:43.221Z,11.10
2017-06-12T17:25:12.454Z,9.83
2017-06-12T17:27:41.491Z,14.70
2017-06-12T17:30:09.785Z,10.20
2017-06-12T17:32:38.119Z,19.93
2017-06-12T17:35:06.493Z,15.40
2017-06-12T17:37:34.757Z,19.30
2017-06-12T17:40:03.003Z,15.37
2017-06-12T17:42:31.317Z,10.13
2017-06-12T17:44:59.586Z,16.63
2017-06-12T17:47:27.842Z,12.43
2017-06-12T17:49:56.088Z,11.87
2017-06-12T17:52:25.110Z,15.73
2017-06-12T17:54:53.366Z,32.13
2017-06-12T17:57:22.503Z,15.30
2017-06-12T17:59:50.757Z,8.33
2017-06-12T18:02:18.996Z,15.97
2017-06-12T18:04:47.257Z,18.37
2017-06-12T18:07:15.493Z,15.37
2017-06-12T18:09:43.768Z,13.93
2017-06-12T18:12:12.029Z,12.33
2017-06-12T18:14:40.331Z,17.33
2017-06-12T18:17:08.597Z,9.97
2017-06-12T18:19:36.913Z,16.27
2017-06-12T18:22:05.258Z,11.30
2017-06-12T18:24:33.508Z,12.40
2017-06-12T18:27:01.753Z,11.73
2017-06-12T18:29:30.025Z,8.20
2017-06-12T18:31:58.257Z,16.70
2017-06-12T18:34:26.503Z,10.13
2017-06-12T18:36:55.573Z,12.10
2017-06-12T18:39:23.846Z,9.53
2017-06-12T18:41:52.117Z,10.83
2017-06-12T18:44:20.357Z,8.60
2017-06-12T18:46:48.694Z,6.60
2017-06-12T18:49:16.973Z,7.90
2017-06-12T18:51:45.986Z,10.67
2017-06-12T18:54:14.259Z,5.73
2017-06-12T18:56:42.508Z,6.57
2017-06-12T18:59:11.618Z,4.67
2017-06-12T19:01:39.884Z,9.43
2017-06-12T19:04:08.881Z,6.93
2017-06-12T19:06:37.918Z,5.87
2017-06-12T19:09:06.162Z,9.77
2017-06-12T19:11:34.461Z,8.10
2017-06-12T19:14:02.738Z,6.47
2017-06-12T19:16:30.988Z,9.70
2017-06-12T19:18:59.224Z,5.43
2017-06-12T19:21:27.562Z,8.03
2017-06-12T19:23:55.810Z,9.00
2017-06-12T19:26:24.042Z,6.47
2017-06-12T19:28:52.285Z,12.20
2017-06-12T19:31:20.543Z,3.43
2017-06-12T19:33:48.783Z,9.03
2017-06-12T19:36:17.036Z,6.10
2017-06-12T19:38:45.310Z,7.57
2017-06-12T19:41:13.661Z,6.23
2017-06-12T19:43:42.006Z,6.30
2017-06-12T19:46:10.233Z,8.77
2017-06-12T19:48:38.597Z,5.37
2017-06-12T19:51:06.869Z,9.07
2017-06-12T19:53:35.121Z,6.07
2017-06-12T19:56:03.437Z,7.30
2017-06-12T19:58:31.746Z,4.63
2017-06-12T20:00:59.988Z,7.53
2017-06-12T20:03:28.238Z,11.17
2017-06-12T20:05:56.562Z,7.93
2017-06-12T20:08:24.790Z,9.17
2017-06-12T20:10:53.092Z,5.43
2017-06-12T20:13:21.454Z,7.47
2017-06-12T20:15:49.881Z,7.83
2017-06-12T20:18:18.116Z,7.30
2017-06-12T20:20:46.414Z,6.40
2017-06-12T20:23:14.644Z,11.00
2017-06-12T20:25:43.033Z,4.90
2017-06-12T20:28:11.277Z,9.17
2017-06-12T20:30:40.276Z,5.97
2017-06-12T20:33:08.553Z,12.93
2017-06-12T20:35:36.825Z,9.30
2017-06-12T20:38:05.146Z,5.60
2017-06-12T20:40:33.555Z,8.97
2017-06-12T20:43:01.998Z,6.50
2017-06-12T20:45:30.321Z,9.23
2017-06-12T20:47:58.524Z,8.03
2017-06-12T20:50:26.797Z,5.60
2017-06-12T21:10:40.137Z,6.27
2017-06-12T21:30:54.013Z,7.03
2017-06-12T21:51:07.321Z,5.40
2017-06-12T21:53:36.358Z,6.17
2017-06-12T22:10:53.786Z,11.27
2017-06-12T22:31:06.999Z,8.80
2017-06-12T22:51:20.839Z,5.63
2017-06-12T22:53:49.081Z,7.87
2017-06-12T22:56:18.085Z,8.83
2017-06-12T22:58:46.348Z,8.33
2017-06-12T23:01:15.364Z,6.33
2017-06-12T23:03:43.633Z,6.90
2017-06-12T23:06:11.869Z,7.10
2017-06-12T23:08:40.226Z,6.70
2017-06-12T23:11:08.537Z,5.50
2017-06-12T23:13:37.552Z,5.73
2017-06-12T23:16:06.596Z,5.30
2017-06-12T23:18:34.825Z,9.67
2017-06-12T23:21:03.063Z,6.80
2017-06-12T23:23:31.305Z,6.77
2017-06-12T23:26:05.194Z,5.67
2017-06-12T23:28:33.498Z,5.23
2017-06-12T23:31:01.728Z,7.37
2017-06-12T23:33:30.046Z,5.23
2017-06-12T23:35:58.296Z,5.57
2017-06-12T23:38:26.545Z,5.77
2017-06-12T23:40:55.576Z,7.07
2017-06-12T23:43:23.813Z,9.50
2017-06-12T23:45:52.856Z,7.20
2017-06-12T23:48:21.093Z,4.90
2017-06-12T23:50:49.397Z,6.60
2017-06-12T23:53:17.654Z,7.70
2017-06-12T23:55:45.897Z,5.53
2017-06-12T23:58:14.220Z,5.60
